East Bridgewater, Massachusetts
Current Conditions -  °F | °C
As of 12:52 AM on Saturday 29 Nov 2014 (Local Time) from KTAN Reporting Station
Clear Clear  
Wind Chill: 23°   Ceiling: Unl
Heat Index: 23°   Visibility: 10mi
Dew Point: 16°   Wind: 3mph
Humidity: 74%   Direction: 270°W
Pressure: 30.22"   Gusts: NA
Location:  42.03°N, 70.96°W
Report Text: KTAN 290552Z AUTO 27003KT 10SM CLR M05/M09 A3022 RMK AO2 SLP235 T10501089 11011 21050 51011
Loading
Personal Weather Stations






























Interactive Weather Map New forecast layout! Learn more

10-Day Weather Forecast

Advertisements
Track Severe Weather on mobile